Time;durP1;ratioP1;P1;durP2;ratioP2;P2;SDS_P1;SDS_P2;PMS_P1;PMS_P2;Temp;Humidity;BMP_temperature;BMP_pressure;BME280_temperature;BME280_humidity;BME280_pressure;Samples;Min_cycle;Max_cycle;Signal;HPM_P1;HPM_P2
2022/07/22 00:00:05;;;;;;;16.65;3.35;;;;;;;;;;4933203;29;20474;-65
2022/07/22 00:02:31;;;;;;;11.73;3.72;;;;;;;;;;4934202;29;20048;-66
2022/07/22 00:04:57;;;;;;;12.88;3.70;;;;;;;;;;4933287;29;20201;-66
2022/07/22 00:07:23;;;;;;;22.33;3.95;;;;;;;;;;4934337;29;20107;-62
2022/07/22 00:09:49;;;;;;;14.40;3.85;;;;;;;;;;4933533;29;20413;-63
2022/07/22 00:12:15;;;;;;;14.65;4.18;;;;;;;;;;4933728;29;20052;-62
2022/07/22 00:14:41;;;;;;;13.70;3.72;;;;;;;;;;4926412;29;20036;-62
2022/07/22 00:17:07;;;;;;;16.42;3.75;;;;;;;;;;4932167;29;20035;-62
2022/07/22 00:19:33;;;;;;;16.42;4.50;;;;;;;;;;4931917;29;20387;-62
2022/07/22 00:21:59;;;;;;;16.52;4.40;;;;;;;;;;4934986;29;20090;-62
2022/07/22 00:24:25;;;;;;;14.65;3.88;;;;;;;;;;4934205;29;20028;-62
2022/07/22 00:26:50;;;;;;;12.55;3.88;;;;;;;;;;4934859;29;20032;-63
2022/07/22 00:29:16;;;;;;;10.88;4.03;;;;;;;;;;4933739;29;20383;-62
2022/07/22 00:31:42;;;;;;;12.85;3.92;;;;;;;;;;4934446;29;20032;-63
2022/07/22 00:34:08;;;;;;;9.75;3.50;;;;;;;;;;4916679;29;20070;-67
2022/07/22 00:36:34;;;;;;;12.35;3.78;;;;;;;;;;4933281;29;20446;-63
2022/07/22 00:39:02;;;;;;;14.38;4.30;;;;;;;;;;4933894;29;20032;-63
2022/07/22 00:41:28;;;;;;;14.85;3.85;;;;;;;;;;4917268;29;20152;-63
2022/07/22 00:43:59;;;;;;;11.25;3.90;;;;;;;;;;4916283;29;20138;-63
2022/07/22 00:46:26;;;;;;;9.80;3.50;;;;;;;;;;4934256;29;20039;-62
2022/07/22 00:48:52;;;;;;;11.02;3.67;;;;;;;;;;4933498;29;20106;-62
2022/07/22 00:51:19;;;;;;;22.10;4.05;;;;;;;;;;4934410;29;20034;-63
2022/07/22 00:53:46;;;;;;;13.70;3.50;;;;;;;;;;4933827;29;20032;-62
2022/07/22 00:56:13;;;;;;;9.00;3.47;;;;;;;;;;4917100;29;20048;-66
2022/07/22 00:58:39;;;;;;;11.23;3.40;;;;;;;;;;4916697;29;20036;-63
2022/07/22 01:01:05;;;;;;;8.10;2.92;;;;;;;;;;4934077;29;20036;-63
2022/07/22 01:03:31;;;;;;;8.23;3.53;;;;;;;;;;4916488;29;20035;-63
2022/07/22 01:05:57;;;;;;;9.15;3.15;;;;;;;;;;4934226;29;20043;-63
2022/07/22 01:08:23;;;;;;;12.00;3.45;;;;;;;;;;4933509;29;20382;-63
2022/07/22 01:10:49;;;;;;;7.20;3.20;;;;;;;;;;4933602;29;20040;-63
2022/07/22 01:13:15;;;;;;;8.27;3.30;;;;;;;;;;4933333;29;20036;-63
2022/07/22 01:15:41;;;;;;;9.18;2.92;;;;;;;;;;4901164;29;20054;-63
2022/07/22 01:18:07;;;;;;;8.27;3.17;;;;;;;;;;4933443;29;20059;-63
2022/07/22 01:20:34;;;;;;;9.07;3.05;;;;;;;;;;4916904;29;20372;-63
2022/07/22 01:23:00;;;;;;;8.65;3.35;;;;;;;;;;4933482;29;20483;-63
2022/07/22 01:25:26;;;;;;;11.55;3.20;;;;;;;;;;4916697;29;20134;-64
2022/07/22 01:27:53;;;;;;;7.00;2.92;;;;;;;;;;4933782;29;20113;-65
2022/07/22 01:30:19;;;;;;;9.07;3.22;;;;;;;;;;4933802;29;20095;-64
2022/07/22 01:32:45;;;;;;;7.00;3.08;;;;;;;;;;4916614;29;20127;-63
2022/07/22 01:35:11;;;;;;;10.07;3.67;;;;;;;;;;4933822;29;20127;-65
2022/07/22 01:37:37;;;;;;;10.13;3.55;;;;;;;;;;4916455;29;20031;-63
2022/07/22 01:40:04;;;;;;;14.48;3.75;;;;;;;;;;4916278;29;20040;-63
2022/07/22 01:42:30;;;;;;;14.27;3.67;;;;;;;;;;4916222;29;20191;-62
2022/07/22 01:44:56;;;;;;;7.75;3.20;;;;;;;;;;4915895;29;20071;-66
2022/07/22 01:47:22;;;;;;;5.82;2.95;;;;;;;;;;4934240;29;20068;-63
2022/07/22 01:49:48;;;;;;;8.45;3.10;;;;;;;;;;4919621;29;20039;-63
2022/07/22 01:52:14;;;;;;;9.63;3.50;;;;;;;;;;4919715;29;20461;-63
2022/07/22 01:54:43;;;;;;;10.82;3.80;;;;;;;;;;4919554;29;20115;-64
2022/07/22 01:57:10;;;;;;;13.00;3.72;;;;;;;;;;4919757;29;20035;-62
2022/07/22 01:59:42;;;;;;;9.00;3.60;;;;;;;;;;4936271;29;20039;-62
2022/07/22 02:02:08;;;;;;;9.02;3.42;;;;;;;;;;4919752;29;20051;-63
2022/07/22 02:04:34;;;;;;;14.30;4.00;;;;;;;;;;4936043;29;20039;-63
2022/07/22 02:07:00;;;;;;;7.75;3.20;;;;;;;;;;4919295;29;20126;-62
2022/07/22 02:09:26;;;;;;;12.27;3.75;;;;;;;;;;4918659;29;20063;-64
2022/07/22 02:11:54;;;;;;;10.57;3.25;;;;;;;;;;4919152;29;20035;-63
2022/07/22 02:14:20;;;;;;;12.82;3.90;;;;;;;;;;4918707;29;20039;-64
2022/07/22 02:16:48;;;;;;;11.30;3.92;;;;;;;;;;4919115;29;20066;-63
2022/07/22 02:19:14;;;;;;;11.20;3.97;;;;;;;;;;4935514;29;20071;-63
2022/07/22 02:21:40;;;;;;;12.77;3.30;;;;;;;;;;4919317;29;20039;-63
2022/07/22 02:24:06;;;;;;;11.57;3.78;;;;;;;;;;4918277;29;20491;-62
2022/07/22 02:26:32;;;;;;;8.63;3.40;;;;;;;;;;4919085;29;20036;-63
2022/07/22 02:28:57;;;;;;;15.15;4.28;;;;;;;;;;4935655;29;20491;-63
2022/07/22 02:31:23;;;;;;;12.80;3.65;;;;;;;;;;4936238;29;20026;-63
2022/07/22 02:33:50;;;;;;;7.32;3.00;;;;;;;;;;4918523;29;20035;-63
2022/07/22 02:36:16;;;;;;;6.72;3.28;;;;;;;;;;4919091;29;20475;-63
2022/07/22 02:38:43;;;;;;;5.97;3.10;;;;;;;;;;4918662;29;20043;-61
2022/07/22 02:41:09;;;;;;;6.95;3.10;;;;;;;;;;4919209;29;20511;-64
2022/07/22 02:43:39;;;;;;;10.90;3.97;;;;;;;;;;4918656;29;20649;-63
2022/07/22 02:46:05;;;;;;;10.80;3.72;;;;;;;;;;4919277;29;20546;-64
2022/07/22 02:48:31;;;;;;;5.80;3.08;;;;;;;;;;4918195;29;20124;-63
2022/07/22 02:50:57;;;;;;;7.63;3.13;;;;;;;;;;4919000;29;20074;-63
2022/07/22 02:53:26;;;;;;;14.80;3.90;;;;;;;;;;4933734;29;20067;-63
2022/07/22 02:55:52;;;;;;;10.65;3.75;;;;;;;;;;4918922;29;20075;-63
2022/07/22 02:58:18;;;;;;;14.15;3.95;;;;;;;;;;4917779;29;20073;-63
2022/07/22 03:00:45;;;;;;;11.52;3.70;;;;;;;;;;4918762;29;20046;-63
2022/07/22 03:03:12;;;;;;;10.88;3.22;;;;;;;;;;4918026;29;20040;-64
2022/07/22 03:05:38;;;;;;;8.85;3.20;;;;;;;;;;4936070;29;20538;-63
2022/07/22 03:08:18;;;;;;;11.55;3.10;;;;;;;;;;4917849;29;20499;-64
2022/07/22 03:10:44;;;;;;;12.75;3.45;;;;;;;;;;4935580;29;20046;-63
2022/07/22 03:13:10;;;;;;;12.13;3.80;;;;;;;;;;4917151;29;20043;-62
2022/07/22 03:15:36;;;;;;;5.68;3.20;;;;;;;;;;4907541;29;20028;-63
2022/07/22 03:18:02;;;;;;;12.02;3.50;;;;;;;;;;4930637;29;20096;-63
2022/07/22 03:20:28;;;;;;;9.57;3.33;;;;;;;;;;4918069;29;20047;-63
2022/07/22 03:22:54;;;;;;;15.15;3.67;;;;;;;;;;4917702;29;20597;-63
2022/07/22 03:25:21;;;;;;;10.40;3.80;;;;;;;;;;4918066;29;20044;-62
2022/07/22 03:27:47;;;;;;;6.82;3.33;;;;;;;;;;4917671;29;20367;-62
2022/07/22 03:30:13;;;;;;;10.73;4.68;;;;;;;;;;4918161;29;20055;-64
2022/07/22 03:32:44;;;;;;;7.20;4.05;;;;;;;;;;4917671;29;20036;-63
2022/07/22 03:35:12;;;;;;;11.82;4.18;;;;;;;;;;4917507;29;20044;-63
2022/07/22 03:37:41;;;;;;;8.38;3.35;;;;;;;;;;4917175;29;20071;-63
2022/07/22 03:40:08;;;;;;;11.23;3.03;;;;;;;;;;4917315;29;20126;-63
2022/07/22 03:42:34;;;;;;;4.25;2.72;;;;;;;;;;4917497;29;20095;-62
2022/07/22 03:45:00;;;;;;;9.80;3.50;;;;;;;;;;4934691;29;20605;-63
2022/07/22 03:47:26;;;;;;;14.57;3.60;;;;;;;;;;4917484;29;20483;-63
2022/07/22 03:49:52;;;;;;;16.80;4.25;;;;;;;;;;4917002;29;20043;-63
2022/07/22 03:52:25;;;;;;;14.52;3.45;;;;;;;;;;4917492;29;20036;-63
2022/07/22 03:54:51;;;;;;;7.60;2.90;;;;;;;;;;4917314;29;20048;-62
2022/07/22 03:57:17;;;;;;;13.00;3.75;;;;;;;;;;4917684;29;20056;-62
2022/07/22 03:59:44;;;;;;;9.73;3.53;;;;;;;;;;4917477;29;20585;-63
2022/07/22 04:02:10;;;;;;;13.80;3.78;;;;;;;;;;4917296;29;20154;-63
2022/07/22 04:04:36;;;;;;;10.68;3.58;;;;;;;;;;4916823;29;20534;-62
2022/07/22 04:07:02;;;;;;;19.90;5.07;;;;;;;;;;4917528;29;20035;-63
2022/07/22 04:09:34;;;;;;;27.70;5.68;;;;;;;;;;4917328;29;20036;-63
2022/07/22 04:11:59;;;;;;;17.17;4.97;;;;;;;;;;4936019;29;20040;-63
2022/07/22 04:14:26;;;;;;;13.82;4.90;;;;;;;;;;4916756;29;20486;-63
2022/07/22 04:16:56;;;;;;;16.20;4.07;;;;;;;;;;4916465;29;20039;-63
2022/07/22 04:19:22;;;;;;;22.05;5.88;;;;;;;;;;4916349;29;20036;-65
2022/07/22 04:21:53;;;;;;;13.73;4.65;;;;;;;;;;4917219;29;20031;-63
2022/07/22 04:24:21;;;;;;;14.95;4.65;;;;;;;;;;4914521;29;20514;-63
2022/07/22 04:26:48;;;;;;;23.23;5.05;;;;;;;;;;4904072;29;20435;-63
2022/07/22 04:29:14;;;;;;;13.57;4.47;;;;;;;;;;4929033;29;20042;-63
2022/07/22 04:31:40;;;;;;;12.77;4.40;;;;;;;;;;4917044;29;20055;-63
2022/07/22 04:34:17;;;;;;;17.88;5.40;;;;;;;;;;4916470;29;20059;-65
2022/07/22 04:36:46;;;;;;;15.32;4.55;;;;;;;;;;4917193;29;20036;-63
2022/07/22 04:39:12;;;;;;;14.40;4.85;;;;;;;;;;4916420;29;20402;-63
2022/07/22 04:41:45;;;;;;;16.88;4.28;;;;;;;;;;4917767;29;20052;-64
2022/07/22 04:44:13;;;;;;;10.35;3.88;;;;;;;;;;4915654;29;20110;-64
2022/07/22 04:46:39;;;;;;;16.75;4.25;;;;;;;;;;4921473;29;20040;-63
2022/07/22 04:49:05;;;;;;;12.38;4.28;;;;;;;;;;4932264;29;20047;-64
2022/07/22 04:51:31;;;;;;;12.13;3.90;;;;;;;;;;4923337;29;20131;-64
2022/07/22 04:54:02;;;;;;;12.23;4.20;;;;;;;;;;4916272;29;20032;-63
2022/07/22 04:56:28;;;;;;;14.20;4.35;;;;;;;;;;4916498;29;20134;-63
2022/07/22 04:58:55;;;;;;;14.75;4.28;;;;;;;;;;4916516;29;20039;-64
2022/07/22 05:01:23;;;;;;;11.77;3.78;;;;;;;;;;4916151;29;20447;-66
2022/07/22 05:03:51;;;;;;;8.25;3.03;;;;;;;;;;4916046;29;20050;-65
2022/07/22 05:06:18;;;;;;;9.90;3.35;;;;;;;;;;4916588;29;20410;-66
2022/07/22 05:08:44;;;;;;;10.32;3.60;;;;;;;;;;4916988;29;20450;-65
2022/07/22 05:11:11;;;;;;;6.50;2.70;;;;;;;;;;4917090;29;20047;-67
2022/07/22 05:13:37;;;;;;;7.20;2.97;;;;;;;;;;4917929;29;20422;-66
2022/07/22 05:16:04;;;;;;;11.30;3.10;;;;;;;;;;4917688;29;20036;-67
2022/07/22 05:18:32;;;;;;;9.50;3.20;;;;;;;;;;4917782;29;20083;-66
2022/07/22 05:20:58;;;;;;;13.40;3.70;;;;;;;;;;4918076;29;20140;-66
2022/07/22 05:23:24;;;;;;;6.97;3.08;;;;;;;;;;4921543;29;20130;-64
2022/07/22 05:25:50;;;;;;;13.80;3.53;;;;;;;;;;4921754;29;20040;-63
2022/07/22 05:28:16;;;;;;;8.65;3.22;;;;;;;;;;4921642;29;20046;-65
2022/07/22 05:30:44;;;;;;;14.30;3.20;;;;;;;;;;4921477;29;20490;-64
2022/07/22 05:33:10;;;;;;;12.85;3.25;;;;;;;;;;4921479;29;20485;-63
2022/07/22 05:36:05;;;;;;;8.65;3.47;;;;;;;;;;4928830;29;20063;-70
2022/07/22 05:38:37;;;;;;;11.85;4.00;;;;;;;;;;4921479;29;20039;-69
2022/07/22 05:41:03;;;;;;;10.73;3.55;;;;;;;;;;4921340;29;20039;-69
2022/07/22 05:43:29;;;;;;;8.23;3.25;;;;;;;;;;4921185;29;20039;-65
2022/07/22 05:45:55;;;;;;;11.73;3.15;;;;;;;;;;4921391;29;20044;-65
2022/07/22 05:48:21;;;;;;;7.68;3.20;;;;;;;;;;4921187;29;20027;-66
2022/07/22 05:50:47;;;;;;;7.85;2.92;;;;;;;;;;4919767;29;20129;-65
2022/07/22 05:53:13;;;;;;;13.73;3.80;;;;;;;;;;4916590;29;20039;-66
2022/07/22 05:55:41;;;;;;;10.82;3.58;;;;;;;;;;4920623;29;20056;-65
2022/07/22 05:58:07;;;;;;;7.28;3.28;;;;;;;;;;4915779;29;20131;-68
2022/07/22 06:00:32;;;;;;;10.93;2.92;;;;;;;;;;4912810;29;20115;-65
2022/07/22 06:02:59;;;;;;;4.50;2.35;;;;;;;;;;4902074;29;20040;-66
2022/07/22 06:05:26;;;;;;;7.88;3.33;;;;;;;;;;4907383;29;20127;-66
2022/07/22 06:07:53;;;;;;;7.63;3.08;;;;;;;;;;4903823;29;20032;-64
2022/07/22 06:10:30;;;;;;;7.60;2.90;;;;;;;;;;4902126;29;20031;-67
2022/07/22 06:12:55;;;;;;;8.43;3.05;;;;;;;;;;4908721;29;20040;-65
2022/07/22 06:15:21;;;;;;;7.53;2.50;;;;;;;;;;4919051;29;20040;-67
2022/07/22 06:17:50;;;;;;;4.85;2.97;;;;;;;;;;4917729;29;20040;-68
2022/07/22 06:20:17;;;;;;;7.40;3.40;;;;;;;;;;4909596;29;20063;-64
2022/07/22 06:22:43;;;;;;;12.98;3.53;;;;;;;;;;4919224;29;20046;-63
2022/07/22 06:25:09;;;;;;;8.05;2.50;;;;;;;;;;4901355;29;20100;-62
2022/07/22 06:27:35;;;;;;;13.85;3.30;;;;;;;;;;4901507;29;20135;-64
2022/07/22 06:30:03;;;;;;;11.40;3.05;;;;;;;;;;4901236;29;20040;-64
2022/07/22 06:32:29;;;;;;;7.55;3.00;;;;;;;;;;4930122;29;20078;-63
2022/07/22 06:34:55;;;;;;;8.05;3.10;;;;;;;;;;4925922;29;20043;-63
2022/07/22 06:37:21;;;;;;;11.63;3.42;;;;;;;;;;4935856;29;20126;-65
2022/07/22 06:39:47;;;;;;;11.00;3.33;;;;;;;;;;4936850;29;20495;-66
2022/07/22 06:42:19;;;;;;;15.77;3.42;;;;;;;;;;4935982;29;20126;-64
2022/07/22 06:45:24;;;;;;;8.13;3.00;;;;;;;;;;4910903;29;20135;-65
2022/07/22 06:48:10;;;;;;;10.10;3.22;;;;;;;;;;4917028;29;20402;-63
2022/07/22 06:50:36;;;;;;;9.45;2.92;;;;;;;;;;4900998;29;20196;-64
2022/07/22 06:53:07;;;;;;;13.10;3.75;;;;;;;;;;4912058;29;20032;-63
2022/07/22 06:55:32;;;;;;;10.48;3.78;;;;;;;;;;4936240;29;20051;-63
2022/07/22 06:58:09;;;;;;;9.15;2.78;;;;;;;;;;4919219;29;20035;-63
2022/07/22 07:00:35;;;;;;;12.23;3.00;;;;;;;;;;4919050;29;20047;-65
2022/07/22 07:03:20;;;;;;;11.63;3.00;;;;;;;;;;4936017;29;20039;-63
2022/07/22 07:05:46;;;;;;;10.60;3.55;;;;;;;;;;4934409;29;20071;-64
2022/07/22 07:08:12;;;;;;;8.05;3.00;;;;;;;;;;4934498;29;20028;-64
2022/07/22 07:10:38;;;;;;;10.48;3.22;;;;;;;;;;4919524;29;20059;-66
2022/07/22 07:13:11;;;;;;;8.25;3.33;;;;;;;;;;4918944;29;20046;-67
2022/07/22 07:15:41;;;;;;;9.13;3.38;;;;;;;;;;4918844;29;20432;-63
2022/07/22 07:18:08;;;;;;;12.55;3.72;;;;;;;;;;4918685;29;20068;-68
2022/07/22 07:20:35;;;;;;;11.45;3.45;;;;;;;;;;4918662;29;20218;-67
2022/07/22 07:23:03;;;;;;;15.65;4.40;;;;;;;;;;4918267;29;20114;-67
2022/07/22 07:25:32;;;;;;;9.88;3.05;;;;;;;;;;4918446;29;20036;-66
2022/07/22 07:27:59;;;;;;;21.38;4.10;;;;;;;;;;4918102;29;20387;-67
2022/07/22 07:30:46;;;;;;;4.35;2.70;;;;;;;;;;4935313;29;20051;-67
2022/07/22 07:33:16;;;;;;;11.80;3.17;;;;;;;;;;4922830;29;20044;-67
2022/07/22 07:35:42;;;;;;;9.77;3.35;;;;;;;;;;4921661;29;20036;-65
2022/07/22 07:38:08;;;;;;;6.82;3.00;;;;;;;;;;4918361;29;20040;-66
2022/07/22 07:40:38;;;;;;;7.53;3.20;;;;;;;;;;4918453;29;20032;-66
2022/07/22 07:43:07;;;;;;;12.93;3.13;;;;;;;;;;4918160;29;20039;-68
2022/07/22 07:45:36;;;;;;;9.05;3.00;;;;;;;;;;4917424;29;20051;-67
2022/07/22 07:48:03;;;;;;;14.82;3.42;;;;;;;;;;4917718;29;20036;-68
2022/07/22 07:50:39;;;;;;;8.35;2.72;;;;;;;;;;4918004;29;20464;-67
2022/07/22 07:53:28;;;;;;;9.63;3.53;;;;;;;;;;4910186;29;20047;-66
2022/07/22 07:55:56;;;;;;;15.27;3.78;;;;;;;;;;4927735;29;20047;-67
2022/07/22 07:58:29;;;;;;;13.70;3.55;;;;;;;;;;4933755;29;20046;-66
2022/07/22 08:01:01;;;;;;;16.10;3.50;;;;;;;;;;4922706;29;20387;-65
2022/07/22 08:03:27;;;;;;;13.68;2.97;;;;;;;;;;4917883;29;20440;-67
2022/07/22 08:05:59;;;;;;;13.32;4.13;;;;;;;;;;4935057;29;20122;-67
2022/07/22 08:08:29;;;;;;;5.55;2.88;;;;;;;;;;4934936;29;20032;-66
2022/07/22 08:11:13;;;;;;;6.95;3.15;;;;;;;;;;4918011;29;20653;-66
2022/07/22 08:14:06;;;;;;;16.02;3.03;;;;;;;;;;4916683;29;20040;-66
2022/07/22 08:17:16;;;;;;;13.75;3.47;;;;;;;;;;4917561;29;20031;-66
2022/07/22 08:19:45;;;;;;;10.10;2.97;;;;;;;;;;4918029;29;20032;-66
2022/07/22 08:22:14;;;;;;;8.77;2.97;;;;;;;;;;4920455;29;20063;-65
2022/07/22 08:24:47;;;;;;;10.13;2.90;;;;;;;;;;4926954;29;20356;-68
2022/07/22 08:27:15;;;;;;;10.55;3.58;;;;;;;;;;4897996;29;20135;-67
2022/07/22 08:29:47;;;;;;;11.48;3.33;;;;;;;;;;4898239;29;20036;-65
2022/07/22 08:32:24;;;;;;;7.35;3.45;;;;;;;;;;4898644;29;20103;-66
2022/07/22 08:34:57;;;;;;;9.98;3.45;;;;;;;;;;4917266;29;20039;-66
2022/07/22 08:37:26;;;;;;;7.90;2.93;;;;;;;;;;4919308;29;20036;-66
2022/07/22 08:39:58;;;;;;;12.65;3.58;;;;;;;;;;4920026;29;20385;-66
2022/07/22 08:42:27;;;;;;;;;;;;;;;;;;4933249;29;20047;-66
2022/07/22 08:44:53;;;;;;;9.25;3.42;;;;;;;;;;4934328;29;19919;-66
2022/07/22 08:47:24;;;;;;;7.53;2.88;;;;;;;;;;4933263;29;20126;-68
2022/07/22 08:50:08;;;;;;;10.75;3.35;;;;;;;;;;4934159;29;20092;-68
2022/07/22 08:52:51;;;;;;;;;;;;;;;;;;4935233;29;20048;-66
2022/07/22 08:55:20;;;;;;;5.03;2.80;;;;;;;;;;4917519;29;19918;-66
2022/07/22 08:57:50;;;;;;;6.53;2.70;;;;;;;;;;4921760;29;20093;-67
2022/07/22 09:00:25;;;;;;;17.50;3.40;;;;;;;;;;4921042;29;20062;-67
2022/07/22 09:02:56;;;;;;;6.20;3.13;;;;;;;;;;4937941;29;20050;-66
2022/07/22 09:05:23;;;;;;;11.60;5.03;;;;;;;;;;4938449;29;20063;-65
2022/07/22 09:08:01;;;;;;;8.60;3.08;;;;;;;;;;4920581;29;20570;-66
2022/07/22 09:10:39;;;;;;;4.93;2.80;;;;;;;;;;4921119;29;20050;-66
2022/07/22 09:13:28;;;;;;;8.57;3.10;;;;;;;;;;4938383;29;20099;-65
2022/07/22 09:16:13;;;;;;;5.50;2.70;;;;;;;;;;4938180;29;20047;-66
2022/07/22 09:19:18;;;;;;;10.43;3.30;;;;;;;;;;4921174;29;20087;-67
2022/07/22 09:21:57;;;;;;;10.40;2.78;;;;;;;;;;4920682;29;20118;-65
2022/07/22 09:24:35;;;;;;;8.82;2.88;;;;;;;;;;4921103;29;20078;-66
2022/07/22 09:27:27;;;;;;;6.72;2.63;;;;;;;;;;4920941;29;20086;-65
2022/07/22 09:30:17;;;;;;;6.30;2.58;;;;;;;;;;4923522;29;20118;-67
2022/07/22 09:32:54;;;;;;;9.45;2.70;;;;;;;;;;4920793;29;20067;-67
2022/07/22 09:35:44;;;;;;;10.77;2.63;;;;;;;;;;4920627;29;20059;-65
2022/07/22 09:38:12;;;;;;;13.27;3.05;;;;;;;;;;4920379;29;20043;-66
2022/07/22 09:40:41;;;;;;;6.20;2.55;;;;;;;;;;4920775;29;20074;-67
2022/07/22 09:43:12;;;;;;;4.65;2.85;;;;;;;;;;4920350;29;20036;-68
2022/07/22 09:45:53;;;;;;;7.57;3.22;;;;;;;;;;4920320;29;20096;-67
2022/07/22 09:48:23;;;;;;;12.38;2.67;;;;;;;;;;4919990;29;20583;-69
2022/07/22 09:51:09;;;;;;;8.07;3.33;;;;;;;;;;4920323;29;20036;-68
2022/07/22 09:53:55;;;;;;;4.55;2.50;;;;;;;;;;4937072;29;20131;-66
2022/07/22 09:56:29;;;;;;;5.60;3.05;;;;;;;;;;4937353;29;20574;-67
2022/07/22 09:58:55;;;;;;;5.53;2.97;;;;;;;;;;4920576;29;20051;-69
2022/07/22 10:01:28;;;;;;;6.28;2.80;;;;;;;;;;4920323;29;20079;-67
2022/07/22 10:03:55;;;;;;;6.65;2.70;;;;;;;;;;4920294;29;20028;-67
2022/07/22 10:06:21;;;;;;;10.02;2.83;;;;;;;;;;4919746;29;20394;-68
2022/07/22 10:08:50;;;;;;;11.25;3.40;;;;;;;;;;4918774;29;20371;-68
2022/07/22 10:11:16;;;;;;;6.38;2.60;;;;;;;;;;4925229;29;20103;-67
2022/07/22 10:13:43;;;;;;;5.97;3.00;;;;;;;;;;4901231;29;20063;-66
2022/07/22 10:16:11;;;;;;;10.82;7.75;;;;;;;;;;4900849;29;20104;-67
2022/07/22 10:18:37;;;;;;;5.78;2.78;;;;;;;;;;4901102;29;20036;-68
2022/07/22 10:21:06;;;;;;;6.90;2.95;;;;;;;;;;4900430;29;20047;-68
2022/07/22 10:23:32;;;;;;;7.35;2.90;;;;;;;;;;4918045;29;20032;-68
2022/07/22 10:26:01;;;;;;;7.82;2.97;;;;;;;;;;4918088;29;20153;-67
2022/07/22 10:28:34;;;;;;;8.73;2.63;;;;;;;;;;4901140;29;20035;-67
2022/07/22 10:31:22;;;;;;;6.17;2.97;;;;;;;;;;4917958;29;20043;-67
2022/07/22 10:33:52;;;;;;;15.10;3.05;;;;;;;;;;4917179;29;20499;-67
2022/07/22 10:36:42;;;;;;;6.82;2.70;;;;;;;;;;4917528;29;21318;-68
2022/07/22 10:39:12;;;;;;;5.63;2.70;;;;;;;;;;4900867;29;20525;-68
2022/07/22 10:41:43;;;;;;;9.82;2.70;;;;;;;;;;4917847;29;20035;-67
2022/07/22 10:44:10;;;;;;;7.67;3.13;;;;;;;;;;4917966;29;20067;-68
2022/07/22 10:46:53;;;;;;;5.35;3.00;;;;;;;;;;4917250;29;20490;-69
2022/07/22 10:49:22;;;;;;;5.63;2.88;;;;;;;;;;4917594;29;20040;-69
2022/07/22 10:52:09;;;;;;;6.05;2.70;;;;;;;;;;4916484;29;20529;-68
2022/07/22 10:55:14;;;;;;;4.43;2.55;;;;;;;;;;4915984;29;20032;-69
2022/07/22 10:57:39;;;;;;;4.07;2.80;;;;;;;;;;4915963;29;20048;-67
2022/07/22 11:00:06;;;;;;;5.05;2.80;;;;;;;;;;4917482;29;20443;-67
2022/07/22 11:02:35;;;;;;;10.27;2.88;;;;;;;;;;4917640;29;20032;-68
2022/07/22 11:05:02;;;;;;;7.38;2.85;;;;;;;;;;4917746;29;20036;-69
2022/07/22 11:07:30;;;;;;;10.27;2.80;;;;;;;;;;4917650;29;20036;-68
2022/07/22 11:10:29;;;;;;;5.90;2.90;;;;;;;;;;4900462;29;20036;-69
2022/07/22 11:12:55;;;;;;;7.10;3.15;;;;;;;;;;4875684;29;20056;-67
2022/07/22 11:15:25;;;;;;;7.47;3.17;;;;;;;;;;4917414;29;20427;-68
2022/07/22 11:17:56;;;;;;;5.82;2.83;;;;;;;;;;4917536;29;20558;-67
2022/07/22 11:20:22;;;;;;;9.07;2.90;;;;;;;;;;4899740;29;20092;-68
2022/07/22 11:22:49;;;;;;;11.73;7.18;;;;;;;;;;4917229;29;20079;-66
2022/07/22 11:25:16;;;;;;;7.47;2.90;;;;;;;;;;4916894;29;20044;-68
2022/07/22 11:27:50;;;;;;;10.80;3.25;;;;;;;;;;4916809;29;20036;-68
2022/07/22 11:30:16;;;;;;;9.43;3.17;;;;;;;;;;4916677;29;20458;-68
2022/07/22 11:32:42;;;;;;;8.77;3.45;;;;;;;;;;4917064;29;20040;-67
2022/07/22 11:35:12;;;;;;;10.48;3.95;;;;;;;;;;4917013;29;20550;-70
2022/07/22 11:37:38;;;;;;;7.90;3.10;;;;;;;;;;4917178;29;20043;-69
2022/07/22 11:40:07;;;;;;;11.05;3.13;;;;;;;;;;4917029;29;20036;-70
2022/07/22 11:42:33;;;;;;;11.73;3.90;;;;;;;;;;4916867;29;20039;-68
2022/07/22 11:44:59;;;;;;;5.68;2.65;;;;;;;;;;4917000;29;20076;-69
2022/07/22 11:47:25;;;;;;;6.35;2.90;;;;;;;;;;4917211;29;20028;-69
2022/07/22 11:49:51;;;;;;;5.97;2.95;;;;;;;;;;4916723;29;20028;-69
2022/07/22 11:52:17;;;;;;;6.70;3.08;;;;;;;;;;4916950;29;20395;-70
2022/07/22 11:54:44;;;;;;;6.07;3.00;;;;;;;;;;4899491;29;20036;-71
2022/07/22 11:57:12;;;;;;;4.78;2.58;;;;;;;;;;4916670;29;20028;-68
2022/07/22 11:59:38;;;;;;;14.98;4.13;;;;;;;;;;4916781;29;20479;-69
2022/07/22 12:02:06;;;;;;;8.93;3.30;;;;;;;;;;4916861;29;20036;-68
2022/07/22 12:04:33;;;;;;;4.32;2.72;;;;;;;;;;4916304;29;20048;-69
2022/07/22 12:07:01;;;;;;;7.97;3.03;;;;;;;;;;4916333;29;20484;-68
2022/07/22 12:09:34;;;;;;;8.18;2.58;;;;;;;;;;4916400;29;20032;-68
2022/07/22 12:12:00;;;;;;;8.55;3.55;;;;;;;;;;4916647;29;20095;-71
2022/07/22 12:14:32;;;;;;;4.88;2.67;;;;;;;;;;4916587;29;20071;-69
2022/07/22 12:17:04;;;;;;;6.73;2.60;;;;;;;;;;4916853;29;20032;-68
2022/07/22 12:19:32;;;;;;;6.63;3.05;;;;;;;;;;4916321;29;20384;-70
2022/07/22 12:22:13;;;;;;;7.30;2.83;;;;;;;;;;4916515;29;20488;-68
2022/07/22 12:24:44;;;;;;;6.30;3.10;;;;;;;;;;4916517;29;20119;-70
2022/07/22 12:27:17;;;;;;;9.27;3.05;;;;;;;;;;4916495;29;20059;-68
2022/07/22 12:29:47;;;;;;;7.18;3.10;;;;;;;;;;4916145;29;20111;-70
2022/07/22 12:32:23;;;;;;;8.18;3.25;;;;;;;;;;4915380;29;20036;-69
2022/07/22 12:35:00;;;;;;;8.00;3.75;;;;;;;;;;4916321;29;20087;-68
2022/07/22 12:37:41;;;;;;;7.20;2.85;;;;;;;;;;4916664;29;20060;-74
2022/07/22 12:40:17;;;;;;;8.32;3.20;;;;;;;;;;4916062;29;20054;-67
2022/07/22 12:42:45;;;;;;;5.20;2.83;;;;;;;;;;4916400;29;20364;-68
2022/07/22 12:45:17;;;;;;;7.88;3.10;;;;;;;;;;4916288;29;20044;-68
2022/07/22 12:47:57;;;;;;;4.55;2.80;;;;;;;;;;4916537;29;20051;-68
2022/07/22 12:50:34;;;;;;;11.07;3.20;;;;;;;;;;4916226;29;20506;-68
2022/07/22 12:53:14;;;;;;;7.22;3.20;;;;;;;;;;4916211;29;20045;-66
2022/07/22 12:55:56;;;;;;;6.75;2.70;;;;;;;;;;4916235;29;20056;-69
2022/07/22 12:58:27;;;;;;;7.00;2.90;;;;;;;;;;4916541;29;20064;-68
2022/07/22 13:00:55;;;;;;;5.38;2.80;;;;;;;;;;4916339;29;20091;-69
2022/07/22 13:03:23;;;;;;;11.70;3.10;;;;;;;;;;4915887;29;20135;-68
2022/07/22 13:05:51;;;;;;;10.82;3.20;;;;;;;;;;4916211;29;20024;-68
2022/07/22 13:08:17;;;;;;;7.15;2.80;;;;;;;;;;4916019;29;20395;-68
2022/07/22 13:10:43;;;;;;;7.15;2.60;;;;;;;;;;4915689;29;20098;-68
2022/07/22 13:13:09;;;;;;;8.20;3.42;;;;;;;;;;4915919;29;20127;-68
2022/07/22 13:15:35;;;;;;;6.53;3.13;;;;;;;;;;4916173;29;20044;-68
2022/07/22 13:18:01;;;;;;;5.78;3.00;;;;;;;;;;4900635;29;20045;-68
2022/07/22 13:20:27;;;;;;;8.68;2.90;;;;;;;;;;4915723;29;20044;-69
2022/07/22 13:22:53;;;;;;;6.75;2.90;;;;;;;;;;4912964;29;20118;-69
2022/07/22 13:25:19;;;;;;;14.80;3.35;;;;;;;;;;4915359;29;20062;-68
2022/07/22 13:27:45;;;;;;;6.50;3.13;;;;;;;;;;4915262;29;20115;-67
2022/07/22 13:30:11;;;;;;;3.17;2.40;;;;;;;;;;4915277;29;20040;-69
2022/07/22 13:32:38;;;;;;;5.43;2.80;;;;;;;;;;4912633;29;20568;-68
2022/07/22 13:35:04;;;;;;;6.97;2.85;;;;;;;;;;4912347;29;20063;-68
2022/07/22 13:37:30;;;;;;;4.80;2.65;;;;;;;;;;4915606;29;20036;-68
2022/07/22 13:39:56;;;;;;;4.90;2.72;;;;;;;;;;4914014;29;20028;-69
2022/07/22 13:42:22;;;;;;;7.75;2.95;;;;;;;;;;4915510;29;20036;-70
2022/07/22 13:44:50;;;;;;;4.70;2.60;;;;;;;;;;4901828;29;20039;-69
2022/07/22 13:47:17;;;;;;;8.95;2.90;;;;;;;;;;4918623;29;20055;-68
2022/07/22 13:49:44;;;;;;;6.47;2.78;;;;;;;;;;4918467;29;20044;-67
2022/07/22 13:52:10;;;;;;;6.35;2.97;;;;;;;;;;4918654;29;20510;-69
2022/07/22 13:54:36;;;;;;;6.47;2.67;;;;;;;;;;4918119;29;20040;-70
2022/07/22 13:57:03;;;;;;;3.80;2.90;;;;;;;;;;4918619;29;20812;-73
2022/07/22 13:59:29;;;;;;;10.70;3.33;;;;;;;;;;4918724;29;20452;-72
2022/07/22 14:02:23;;;;;;;5.30;2.80;;;;;;;;;;4918938;29;20507;-67
2022/07/22 14:04:49;;;;;;;5.07;2.67;;;;;;;;;;4918223;29;20042;-72
2022/07/22 14:07:15;;;;;;;8.73;2.92;;;;;;;;;;4917624;29;20120;-67
2022/07/22 14:09:41;;;;;;;6.10;2.97;;;;;;;;;;4918057;29;20043;-70
2022/07/22 14:12:07;;;;;;;7.40;3.28;;;;;;;;;;4918144;29;20036;-72
2022/07/22 14:14:33;;;;;;;4.78;2.80;;;;;;;;;;4918133;29;20032;-70
2022/07/22 14:16:59;;;;;;;7.85;3.20;;;;;;;;;;4917871;29;20041;-71
2022/07/22 14:19:25;;;;;;;6.55;3.00;;;;;;;;;;4917317;29;20383;-69
2022/07/22 14:21:50;;;;;;;6.63;3.13;;;;;;;;;;4917966;29;20036;-71
2022/07/22 14:24:16;;;;;;;6.35;2.67;;;;;;;;;;4917980;29;20032;-69
2022/07/22 14:26:43;;;;;;;5.55;3.20;;;;;;;;;;4918182;29;20048;-72
2022/07/22 14:29:11;;;;;;;9.30;3.38;;;;;;;;;;4900981;29;20495;-68
2022/07/22 14:31:37;;;;;;;10.52;2.83;;;;;;;;;;4917797;29;20136;-71
2022/07/22 14:34:03;;;;;;;7.10;3.08;;;;;;;;;;4901379;29;20106;-70
2022/07/22 14:36:29;;;;;;;5.55;3.15;;;;;;;;;;4917995;29;20502;-67
2022/07/22 14:38:55;;;;;;;5.05;3.03;;;;;;;;;;4918145;29;20491;-66
2022/07/22 14:41:21;;;;;;;5.80;2.95;;;;;;;;;;4917814;29;20043;-67
2022/07/22 14:43:48;;;;;;;7.93;2.95;;;;;;;;;;4917557;29;20036;-71
2022/07/22 14:46:13;;;;;;;7.63;3.10;;;;;;;;;;4917647;29;20426;-70
2022/07/22 14:48:40;;;;;;;6.68;3.10;;;;;;;;;;4917810;29;20032;-71
2022/07/22 14:51:07;;;;;;;4.90;3.00;;;;;;;;;;4917960;29;20436;-67